createdAt,value
2023-01-26T00:00:23.801Z,0.02
2023-01-26T00:00:54.731Z,0.01
2023-01-26T00:01:25.671Z,-0.01
2023-01-26T00:01:56.589Z,0.02
2023-01-26T00:02:27.597Z,-0.01
2023-01-26T00:02:58.093Z,0.02
2023-01-26T00:03:29.004Z,0.01
2023-01-26T00:03:59.949Z,0.01
2023-01-26T00:04:30.848Z,0.04
2023-01-26T00:05:01.788Z,0.04
2023-01-26T00:05:32.721Z,0.07
2023-01-26T00:06:03.650Z,0.04
2023-01-26T00:06:34.558Z,0.08
2023-01-26T00:07:05.483Z,0.04
2023-01-26T00:07:36.434Z,0.05
2023-01-26T00:08:07.330Z,0.02
2023-01-26T00:08:38.238Z,0.02
2023-01-26T00:09:09.159Z,0.02
2023-01-26T00:09:40.098Z,0.01
2023-01-26T00:10:11.321Z,0.02
2023-01-26T00:10:41.933Z,0.02
2023-01-26T00:11:12.864Z,0.01
2023-01-26T00:11:43.807Z,0.04
2023-01-26T00:12:14.722Z,0.04
2023-01-26T00:12:45.671Z,0.02
2023-01-26T00:13:16.613Z,0.02
2023-01-26T00:13:47.548Z,0.04
2023-01-26T00:14:18.473Z,0.04
2023-01-26T00:14:49.396Z,0.04
2023-01-26T00:15:20.325Z,0.07
2023-01-26T00:15:51.262Z,0.07
2023-01-26T00:16:22.307Z,0.07
2023-01-26T00:16:52.749Z,0.05
2023-01-26T00:17:23.686Z,0.05
2023-01-26T00:17:54.636Z,0.04
2023-01-26T00:18:25.558Z,0.05
2023-01-26T00:18:56.528Z,0.01
2023-01-26T00:19:27.449Z,0.02
2023-01-26T00:19:58.445Z,0.01
2023-01-26T00:20:29.339Z,0.04
2023-01-26T00:21:00.304Z,0.04
2023-01-26T00:21:31.249Z,0.04
2023-01-26T00:22:02.145Z,0.02
2023-01-26T00:22:33.038Z,0.01
2023-01-26T00:23:03.993Z,-0.02
2023-01-26T00:23:34.892Z,-0.03
2023-01-26T00:24:05.897Z,-0.06
2023-01-26T00:24:36.330Z,-0.09
2023-01-26T00:25:07.279Z,-0.14
2023-01-26T00:25:38.175Z,-0.14
2023-01-26T00:26:09.106Z,-0.16
2023-01-26T00:26:40.041Z,-0.14
2023-01-26T00:27:10.958Z,-0.16
2023-01-26T00:27:41.874Z,-0.16
2023-01-26T00:28:12.802Z,-0.17
2023-01-26T00:28:43.763Z,-0.16
2023-01-26T00:29:14.650Z,-0.14
2023-01-26T00:29:45.574Z,-0.12
2023-01-26T00:30:16.483Z,-0.09
2023-01-26T00:30:47.586Z,-0.05
2023-01-26T00:31:18.104Z,-0.03
2023-01-26T00:31:48.581Z,-0.05
2023-01-26T00:32:19.522Z,-0.05
2023-01-26T00:32:50.435Z,-0.02
2023-01-26T00:33:21.334Z,-0.05
2023-01-26T00:33:52.274Z,-0.06
2023-01-26T00:34:54.108Z,-0.12
2023-01-26T00:35:25.040Z,-0.14
2023-01-26T00:35:55.960Z,-0.14
2023-01-26T00:36:26.868Z,-0.17
2023-01-26T00:36:57.806Z,-0.17
2023-01-26T00:37:28.718Z,-0.17
2023-01-26T00:37:59.666Z,-0.19
2023-01-26T00:38:30.604Z,-0.19
2023-01-26T00:39:01.547Z,-0.17
2023-01-26T00:39:32.472Z,-0.21
2023-01-26T00:40:03.397Z,-0.23
2023-01-26T00:40:34.347Z,-0.21
2023-01-26T00:41:05.260Z,-0.20
2023-01-26T00:41:36.206Z,-0.21
2023-01-26T00:42:07.131Z,-0.26
2023-01-26T00:42:38.040Z,-0.27
2023-01-26T00:43:08.963Z,-0.27
2023-01-26T00:43:39.873Z,-0.27
2023-01-26T00:44:10.782Z,-0.27
2023-01-26T00:44:41.726Z,-0.27
2023-01-26T00:45:12.637Z,-0.26
2023-01-26T00:45:43.576Z,-0.27
2023-01-26T00:46:14.496Z,-0.24
2023-01-26T00:46:45.436Z,-0.27
2023-01-26T00:47:16.345Z,-0.26
2023-01-26T00:47:47.265Z,-0.26
2023-01-26T00:48:18.169Z,-0.26
2023-01-26T00:48:49.102Z,-0.21
2023-01-26T00:49:20.065Z,-0.19
2023-01-26T00:49:50.974Z,-0.16
2023-01-26T00:50:21.901Z,-0.16
2023-01-26T00:50:52.835Z,-0.17
2023-01-26T00:51:23.787Z,-0.14
2023-01-26T00:51:54.712Z,-0.09
2023-01-26T00:52:25.648Z,-0.12
2023-01-26T00:52:56.568Z,-0.12
2023-01-26T00:53:27.475Z,-0.09
2023-01-26T00:53:58.407Z,-0.08
2023-01-26T00:54:29.358Z,-0.08
2023-01-26T00:55:00.328Z,-0.09
2023-01-26T00:55:31.258Z,-0.08
2023-01-26T00:56:02.210Z,-0.08
2023-01-26T00:57:04.006Z,-0.08
2023-01-26T00:57:34.914Z,-0.08
2023-01-26T00:58:05.816Z,-0.06
2023-01-26T00:58:36.757Z,-0.08
2023-01-26T00:59:07.689Z,-0.06
2023-01-26T00:59:38.613Z,-0.06
2023-01-26T01:00:10.023Z,-0.03
2023-01-26T01:00:40.205Z,-0.05
2023-01-26T01:01:11.195Z,-0.03
2023-01-26T01:01:42.146Z,-0.03
2023-01-26T01:02:12.713Z,-0.03
2023-01-26T01:02:43.152Z,-0.02
2023-01-26T01:03:14.060Z,0.01
2023-01-26T01:03:45.020Z,-0.01
2023-01-26T01:04:15.941Z,0.01
2023-01-26T01:04:46.891Z,-0.01
2023-01-26T01:05:17.818Z,-0.01
2023-01-26T01:05:48.757Z,0.01
2023-01-26T01:06:19.698Z,0.02
2023-01-26T01:06:50.230Z,0.04
2023-01-26T01:07:21.147Z,0.04
2023-01-26T01:07:52.087Z,0.05
2023-01-26T01:08:23.005Z,0.04
2023-01-26T01:08:53.932Z,0.05
2023-01-26T01:09:24.864Z,0.05
2023-01-26T01:09:55.815Z,0.04
2023-01-26T01:10:26.728Z,0.04
2023-01-26T01:10:57.655Z,0.04
2023-01-26T01:11:28.614Z,0.05
2023-01-26T01:11:59.517Z,0.04
2023-01-26T01:12:30.459Z,0.02
2023-01-26T01:13:01.403Z,0.04
2023-01-26T01:13:33.167Z,-0.01
2023-01-26T01:14:34.007Z,-0.01
2023-01-26T01:15:04.927Z,-0.02
2023-01-26T01:15:35.841Z,-0.02
2023-01-26T01:16:06.814Z,0.01
2023-01-26T01:16:37.710Z,0.01
2023-01-26T01:17:08.639Z,-0.01
2023-01-26T01:17:39.567Z,0.01
2023-01-26T01:18:10.504Z,0.02
2023-01-26T01:18:41.440Z,0.04
2023-01-26T01:19:12.959Z,0.04
2023-01-26T01:19:43.375Z,0.04
2023-01-26T01:20:14.462Z,0.05
2023-01-26T01:20:44.858Z,0.05
2023-01-26T01:21:15.788Z,0.01
2023-01-26T01:21:46.715Z,0.02
2023-01-26T01:22:17.637Z,0.02
2023-01-26T01:22:48.568Z,0.02
2023-01-26T01:23:19.503Z,0.02
2023-01-26T01:23:50.492Z,0.01
2023-01-26T01:24:21.532Z,-0.01
2023-01-26T01:24:51.958Z,0.02
2023-01-26T01:25:22.884Z,0.01
2023-01-26T01:25:53.795Z,0.01
2023-01-26T01:26:24.726Z,0.02
2023-01-26T01:26:55.673Z,0.04
2023-01-26T01:27:26.578Z,0.04
2023-01-26T01:27:57.503Z,0.04
2023-01-26T01:28:28.426Z,0.02
2023-01-26T01:28:59.367Z,0.02
2023-01-26T01:29:30.291Z,0.02
2023-01-26T01:30:01.231Z,-0.01
2023-01-26T01:30:32.168Z,0.01
2023-01-26T01:31:03.200Z,0.01
2023-01-26T01:32:04.642Z,0.01
2023-01-26T01:32:35.103Z,0.01
2023-01-26T01:33:06.018Z,-0.03
2023-01-26T01:33:36.949Z,-0.05
2023-01-26T01:34:07.879Z,-0.05
2023-01-26T01:34:38.809Z,-0.08
2023-01-26T01:35:09.714Z,-0.08
2023-01-26T01:35:40.655Z,-0.12
2023-01-26T01:36:11.577Z,-0.16
2023-01-26T01:36:42.500Z,-0.17
2023-01-26T01:37:13.423Z,-0.19
2023-01-26T01:37:44.345Z,-0.19
2023-01-26T01:38:15.267Z,-0.20
2023-01-26T01:38:46.231Z,-0.23
2023-01-26T01:39:17.171Z,-0.26
2023-01-26T01:39:48.107Z,-0.27
2023-01-26T01:40:19.048Z,-0.30
2023-01-26T01:40:49.943Z,-0.27
2023-01-26T01:41:20.861Z,-0.27
2023-01-26T01:41:51.801Z,-0.27
2023-01-26T01:42:22.746Z,-0.30
2023-01-26T01:42:53.642Z,-0.30
2023-01-26T01:43:24.578Z,-0.30
2023-01-26T01:44:25.286Z,-0.27
2023-01-26T01:44:57.211Z,-0.24
2023-01-26T01:45:28.153Z,-0.26
2023-01-26T01:45:59.072Z,-0.23
2023-01-26T01:46:30.078Z,-0.21
2023-01-26T01:47:01.007Z,-0.17
2023-01-26T01:47:31.923Z,-0.17
2023-01-26T01:48:02.883Z,-0.16
2023-01-26T01:48:33.775Z,-0.14
2023-01-26T01:49:04.689Z,-0.13
2023-01-26T01:49:35.614Z,-0.12
2023-01-26T01:50:06.544Z,-0.12
2023-01-26T01:50:37.457Z,-0.08
2023-01-26T01:51:08.373Z,-0.09
2023-01-26T01:51:39.291Z,-0.09
2023-01-26T01:52:10.228Z,-0.13
2023-01-26T01:52:41.162Z,-0.14
2023-01-26T01:53:12.097Z,-0.16
2023-01-26T01:53:43.011Z,-0.12
2023-01-26T01:54:13.946Z,-0.06
2023-01-26T01:54:44.887Z,-0.09
2023-01-26T01:55:15.821Z,-0.06
2023-01-26T01:55:46.747Z,-0.05
2023-01-26T01:56:17.660Z,-0.03
2023-01-26T01:56:48.634Z,-0.02
2023-01-26T01:57:19.545Z,-0.01
2023-01-26T01:57:50.480Z,-0.03
2023-01-26T01:58:21.400Z,-0.03
2023-01-26T01:58:52.315Z,-0.06
2023-01-26T01:59:23.244Z,-0.05
2023-01-26T01:59:54.155Z,-0.06
2023-01-26T02:00:25.061Z,-0.06
2023-01-26T02:00:56.046Z,-0.09
2023-01-26T02:01:26.951Z,-0.12
2023-01-26T02:01:57.938Z,-0.12
2023-01-26T02:02:28.847Z,-0.14
2023-01-26T02:02:59.778Z,-0.16
2023-01-26T02:03:30.699Z,-0.17
2023-01-26T02:04:01.633Z,-0.14
2023-01-26T02:04:32.564Z,-0.13
2023-01-26T02:05:03.475Z,-0.13
2023-01-26T02:05:34.403Z,-0.16
2023-01-26T02:06:05.305Z,-0.13
2023-01-26T02:06:36.229Z,-0.13
2023-01-26T02:07:07.159Z,-0.14
2023-01-26T02:07:38.071Z,-0.14
2023-01-26T02:08:09.015Z,-0.14
2023-01-26T02:08:39.938Z,-0.14
2023-01-26T02:09:10.856Z,-0.14
2023-01-26T02:09:41.771Z,-0.16
2023-01-26T02:10:13.008Z,-0.14
2023-01-26T02:10:43.538Z,-0.13
2023-01-26T02:11:14.451Z,-0.16
2023-01-26T02:11:45.366Z,-0.19
2023-01-26T02:12:16.327Z,-0.21
2023-01-26T02:12:47.253Z,-0.21
2023-01-26T02:13:18.215Z,-0.26
2023-01-26T02:13:49.132Z,-0.24
2023-01-26T02:14:20.045Z,-0.24
2023-01-26T02:14:50.981Z,-0.27
2023-01-26T02:15:21.916Z,-0.26
2023-01-26T02:15:52.855Z,-0.23
2023-01-26T02:16:23.823Z,-0.20
2023-01-26T02:16:54.268Z,-0.16
2023-01-26T02:17:25.212Z,-0.13
2023-01-26T02:17:56.131Z,-0.13
2023-01-26T02:18:27.082Z,-0.12
2023-01-26T02:18:57.975Z,-0.13
2023-01-26T02:19:28.919Z,-0.16
2023-01-26T02:19:59.862Z,-0.16
2023-01-26T02:20:30.780Z,-0.14
2023-01-26T02:21:01.734Z,-0.14
2023-01-26T02:21:32.662Z,-0.14
2023-01-26T02:22:03.596Z,-0.14
2023-01-26T02:22:34.515Z,-0.14
2023-01-26T02:23:05.434Z,-0.14
2023-01-26T02:23:36.327Z,-0.14
2023-01-26T02:24:07.323Z,-0.16
2023-01-26T02:24:38.214Z,-0.16
2023-01-26T02:25:09.131Z,-0.17
2023-01-26T02:25:40.034Z,-0.17
2023-01-26T02:26:41.899Z,-0.16
2023-01-26T02:27:12.808Z,-0.16
2023-01-26T02:27:43.740Z,-0.19
2023-01-26T02:28:14.657Z,-0.14
2023-01-26T02:28:45.610Z,-0.14
2023-01-26T02:29:16.515Z,-0.14
2023-01-26T02:29:47.437Z,-0.13
2023-01-26T02:30:18.350Z,-0.14
2023-01-26T02:30:49.294Z,-0.14
2023-01-26T02:31:20.456Z,-0.14
2023-01-26T02:31:51.046Z,-0.12
2023-01-26T02:32:21.517Z,-0.13
2023-01-26T02:32:52.430Z,-0.13
2023-01-26T02:33:23.351Z,-0.13
2023-01-26T02:33:54.266Z,-0.16
2023-01-26T02:34:25.168Z,-0.13
2023-01-26T02:34:56.132Z,-0.13
2023-01-26T02:35:27.082Z,-0.14
2023-01-26T02:35:58.008Z,-0.16
2023-01-26T02:36:28.940Z,-0.17
2023-01-26T02:36:59.893Z,-0.17
2023-01-26T02:37:30.788Z,-0.16
2023-01-26T02:38:01.713Z,-0.13
2023-01-26T02:38:32.628Z,-0.12
2023-01-26T02:39:03.557Z,-0.13
2023-01-26T02:39:34.494Z,-0.12
2023-01-26T02:40:05.441Z,-0.13
2023-01-26T02:40:36.362Z,-0.08
2023-01-26T02:41:07.289Z,-0.06
2023-01-26T02:41:38.195Z,-0.05
2023-01-26T02:42:09.104Z,-0.03
2023-01-26T02:42:40.047Z,-0.03
2023-01-26T02:43:10.958Z,-0.02
2023-01-26T02:44:12.839Z,-0.03
2023-01-26T02:44:43.774Z,-0.03
2023-01-26T02:45:14.686Z,-0.05
2023-01-26T02:45:45.589Z,-0.05
2023-01-26T02:46:16.526Z,-0.06
2023-01-26T02:46:47.437Z,-0.05
2023-01-26T02:47:18.362Z,-0.05
2023-01-26T02:47:49.285Z,-0.05
2023-01-26T02:48:20.209Z,-0.02
2023-01-26T02:48:51.137Z,-0.05
2023-01-26T02:49:22.049Z,-0.02
2023-01-26T02:49:52.983Z,-0.05
2023-01-26T02:50:23.911Z,-0.02
2023-01-26T02:50:54.823Z,-0.02
2023-01-26T02:51:25.747Z,-0.03
2023-01-26T02:51:56.668Z,-0.06
2023-01-26T02:52:27.599Z,-0.06
2023-01-26T02:52:58.547Z,-0.08
2023-01-26T02:53:29.467Z,-0.06
2023-01-26T02:54:00.429Z,-0.06
2023-01-26T02:54:31.337Z,-0.08
2023-01-26T02:55:02.239Z,-0.12
2023-01-26T02:55:33.168Z,-0.08
2023-01-26T02:56:04.113Z,-0.08
2023-01-26T02:56:35.045Z,-0.06
2023-01-26T02:57:05.969Z,-0.08
2023-01-26T02:57:36.897Z,-0.09
2023-01-26T02:58:07.796Z,-0.12
2023-01-26T02:58:38.701Z,-0.08
2023-01-26T02:59:09.631Z,-0.12
2023-01-26T02:59:40.569Z,-0.06
2023-01-26T03:00:11.864Z,-0.08
2023-01-26T03:00:42.469Z,-0.09
2023-01-26T03:01:13.436Z,-0.12
2023-01-26T03:01:44.406Z,-0.09
2023-01-26T03:02:14.895Z,-0.09
2023-01-26T03:02:45.345Z,-0.09
2023-01-26T03:03:16.273Z,-0.09
2023-01-26T03:03:47.171Z,-0.09
2023-01-26T03:04:18.089Z,-0.13
2023-01-26T03:04:48.998Z,-0.09
2023-01-26T03:05:19.926Z,-0.12
2023-01-26T03:05:50.849Z,-0.13
2023-01-26T03:06:52.686Z,-0.14
2023-01-26T03:07:23.630Z,-0.16
2023-01-26T03:07:54.115Z,-0.16
2023-01-26T03:08:25.036Z,-0.17
2023-01-26T03:08:55.959Z,-0.17
2023-01-26T03:09:26.894Z,-0.19
2023-01-26T03:09:57.810Z,-0.17
2023-01-26T03:10:28.756Z,-0.19
2023-01-26T03:10:59.671Z,-0.20
2023-01-26T03:11:30.599Z,-0.23
2023-01-26T03:12:01.515Z,-0.21
2023-01-26T03:12:32.424Z,-0.24
2023-01-26T03:13:03.344Z,-0.24
2023-01-26T03:13:34.270Z,-0.24
2023-01-26T03:14:05.206Z,-0.27
2023-01-26T03:14:36.138Z,-0.26
2023-01-26T03:15:07.083Z,-0.26
2023-01-26T03:15:38.002Z,-0.26
2023-01-26T03:16:08.988Z,-0.24
2023-01-26T03:16:39.867Z,-0.24
2023-01-26T03:17:10.780Z,-0.23
2023-01-26T03:17:41.703Z,-0.23
2023-01-26T03:18:12.628Z,-0.21
2023-01-26T03:18:43.555Z,-0.21
2023-01-26T03:19:14.478Z,-0.21
2023-01-26T03:19:45.412Z,-0.23
2023-01-26T03:20:16.337Z,-0.21
2023-01-26T03:20:47.244Z,-0.21
2023-01-26T03:21:18.169Z,-0.20
2023-01-26T03:21:49.074Z,-0.19
2023-01-26T03:22:19.989Z,-0.20
2023-01-26T03:22:50.923Z,-0.20
2023-01-26T03:23:21.878Z,-0.20
2023-01-26T03:23:52.842Z,-0.20
2023-01-26T03:24:23.786Z,-0.21
2023-01-26T03:24:54.705Z,-0.24
2023-01-26T03:25:25.644Z,-0.21
2023-01-26T03:25:56.570Z,-0.24
2023-01-26T03:26:27.515Z,-0.23
2023-01-26T03:26:58.428Z,-0.24
2023-01-26T03:27:29.371Z,-0.24
2023-01-26T03:28:00.350Z,-0.21
2023-01-26T03:29:02.201Z,-0.21
2023-01-26T03:29:33.118Z,-0.20
2023-01-26T03:30:04.036Z,-0.21
2023-01-26T03:30:35.029Z,-0.21
2023-01-26T03:31:05.970Z,-0.20
2023-01-26T03:31:36.994Z,-0.20
2023-01-26T03:32:07.408Z,-0.17
2023-01-26T03:32:38.335Z,-0.16
2023-01-26T03:33:09.213Z,-0.16
2023-01-26T03:33:40.142Z,-0.12
2023-01-26T03:34:11.057Z,-0.12
2023-01-26T03:34:41.985Z,-0.12
2023-01-26T03:35:12.909Z,-0.08
2023-01-26T03:35:43.838Z,-0.09
2023-01-26T03:36:14.759Z,-0.08
2023-01-26T03:36:45.698Z,-0.06
2023-01-26T03:37:16.623Z,-0.08
2023-01-26T03:37:47.560Z,-0.06
2023-01-26T03:38:18.480Z,-0.06
2023-01-26T03:38:49.417Z,-0.06
2023-01-26T03:39:20.316Z,-0.06
2023-01-26T03:39:51.246Z,-0.06
2023-01-26T03:40:22.186Z,-0.08
2023-01-26T03:40:53.116Z,-0.08
2023-01-26T03:41:24.035Z,-0.08
2023-01-26T03:41:54.970Z,-0.03
2023-01-26T03:42:25.892Z,-0.05
2023-01-26T03:42:56.826Z,-0.05
2023-01-26T03:43:27.751Z,-0.03
2023-01-26T03:43:58.696Z,-0.05
2023-01-26T03:44:29.602Z,-0.06
2023-01-26T03:45:00.539Z,-0.06
2023-01-26T03:45:31.475Z,-0.06
2023-01-26T03:46:02.414Z,-0.06
2023-01-26T03:46:33.364Z,-0.06
2023-01-26T03:47:04.302Z,-0.06
2023-01-26T03:47:35.235Z,-0.08
2023-01-26T03:48:06.168Z,-0.06
2023-01-26T03:48:37.098Z,-0.08
2023-01-26T03:49:07.987Z,-0.06
2023-01-26T03:49:38.907Z,-0.06
2023-01-26T03:50:10.262Z,-0.08
2023-01-26T03:50:40.367Z,-0.06
2023-01-26T03:51:11.304Z,-0.09
2023-01-26T03:51:42.263Z,-0.09
2023-01-26T03:52:13.156Z,-0.12
2023-01-26T03:52:44.065Z,-0.09
2023-01-26T03:53:14.984Z,-0.13
2023-01-26T03:53:45.914Z,-0.14
2023-01-26T03:54:16.839Z,-0.13
2023-01-26T03:54:47.735Z,-0.13
2023-01-26T03:55:18.688Z,-0.14
2023-01-26T03:55:49.605Z,-0.16
2023-01-26T03:56:20.504Z,-0.16
2023-01-26T03:56:51.446Z,-0.16
2023-01-26T03:57:22.370Z,-0.17
2023-01-26T03:57:53.290Z,-0.16
2023-01-26T03:58:24.225Z,-0.17
2023-01-26T03:58:55.165Z,-0.16
2023-01-26T03:59:26.080Z,-0.19
2023-01-26T03:59:56.991Z,-0.20
2023-01-26T04:00:27.956Z,-0.19
2023-01-26T04:00:58.959Z,-0.19
2023-01-26T04:01:29.379Z,-0.17
2023-01-26T04:02:00.325Z,-0.16
2023-01-26T04:02:31.247Z,-0.20
2023-01-26T04:03:02.187Z,-0.20
2023-01-26T04:03:33.102Z,-0.17
2023-01-26T04:04:04.019Z,-0.20
2023-01-26T04:04:34.939Z,-0.20
2023-01-26T04:05:05.867Z,-0.20
2023-01-26T04:05:36.793Z,-0.19
2023-01-26T04:06:16.366Z,-0.19
2023-01-26T04:06:38.537Z,-0.19
2023-01-26T04:07:09.483Z,-0.20
2023-01-26T04:07:40.372Z,-0.19
2023-01-26T04:08:11.287Z,-0.20
2023-01-26T04:08:42.257Z,-0.21
2023-01-26T04:09:12.758Z,-0.21
2023-01-26T04:09:43.669Z,-0.20
2023-01-26T04:10:14.658Z,-0.23
2023-01-26T04:10:45.580Z,-0.24
2023-01-26T04:11:16.518Z,-0.21
2023-01-26T04:11:47.477Z,-0.23
2023-01-26T04:12:18.381Z,-0.24
2023-01-26T04:12:49.323Z,-0.24
2023-01-26T04:13:20.233Z,-0.27
2023-01-26T04:13:51.182Z,-0.27
2023-01-26T04:14:22.133Z,-0.31
2023-01-26T04:14:53.060Z,-0.30
2023-01-26T04:15:23.973Z,-0.32
2023-01-26T04:15:54.893Z,-0.32
2023-01-26T04:16:25.885Z,-0.34
2023-01-26T04:16:56.810Z,-0.34
2023-01-26T04:17:27.739Z,-0.35
2023-01-26T04:17:58.663Z,-0.35
2023-01-26T04:18:29.580Z,-0.35
2023-01-26T04:19:00.555Z,-0.38
2023-01-26T04:19:31.469Z,-0.35
2023-01-26T04:20:02.401Z,-0.34
2023-01-26T04:20:33.322Z,-0.35
2023-01-26T04:21:04.255Z,-0.35
2023-01-26T04:21:35.189Z,-0.34
2023-01-26T04:22:06.131Z,-0.35
2023-01-26T04:22:37.069Z,-0.37
2023-01-26T04:23:08.000Z,-0.34
2023-01-26T04:23:38.929Z,-0.35
2023-01-26T04:24:09.954Z,-0.37
2023-01-26T04:24:40.373Z,-0.37
2023-01-26T04:25:11.294Z,-0.39
2023-01-26T04:26:13.162Z,-0.38
2023-01-26T04:26:44.138Z,-0.41
2023-01-26T04:27:15.067Z,-0.38
2023-01-26T04:27:46.054Z,-0.37
2023-01-26T04:28:16.528Z,-0.38
2023-01-26T04:28:47.449Z,-0.37
2023-01-26T04:29:18.359Z,-0.37
2023-01-26T04:29:49.292Z,-0.35
2023-01-26T04:30:20.304Z,-0.35
2023-01-26T04:30:50.768Z,-0.35
2023-01-26T04:31:21.724Z,-0.35
2023-01-26T04:31:52.686Z,-0.37
2023-01-26T04:32:23.628Z,-0.37
2023-01-26T04:32:54.534Z,-0.37
2023-01-26T04:33:25.462Z,-0.34
2023-01-26T04:33:56.417Z,-0.38
2023-01-26T04:34:27.336Z,-0.38
2023-01-26T04:34:58.249Z,-0.37
2023-01-26T04:35:29.182Z,-0.35
2023-01-26T04:36:00.110Z,-0.34
2023-01-26T04:36:31.016Z,-0.34
2023-01-26T04:37:01.934Z,-0.35
2023-01-26T04:37:32.864Z,-0.34
2023-01-26T04:38:03.768Z,-0.34
2023-01-26T04:38:34.695Z,-0.32
2023-01-26T04:39:05.647Z,-0.31
2023-01-26T04:39:36.610Z,-0.32
2023-01-26T04:40:07.529Z,-0.31
2023-01-26T04:40:38.446Z,-0.30
2023-01-26T04:41:09.369Z,-0.30
2023-01-26T04:41:42.355Z,-0.27
2023-01-26T04:42:10.935Z,-0.27
2023-01-26T04:42:41.864Z,-0.27
2023-01-26T04:43:12.786Z,-0.27
2023-01-26T04:43:43.706Z,-0.27
2023-01-26T04:44:14.619Z,-0.26
2023-01-26T04:44:45.577Z,-0.26
2023-01-26T04:45:16.493Z,-0.26
2023-01-26T04:45:47.456Z,-0.26
2023-01-26T04:46:18.383Z,-0.26
2023-01-26T04:46:49.293Z,-0.26
2023-01-26T04:47:20.220Z,-0.26
2023-01-26T04:47:51.185Z,-0.27
2023-01-26T04:48:22.098Z,-0.27
2023-01-26T04:48:53.020Z,-0.30
2023-01-26T04:49:23.951Z,-0.30
2023-01-26T04:49:54.878Z,-0.32
2023-01-26T04:50:25.808Z,-0.34
2023-01-26T04:50:56.763Z,-0.35
2023-01-26T04:51:27.667Z,-0.34
2023-01-26T04:51:58.608Z,-0.35
2023-01-26T04:52:29.535Z,-0.38
2023-01-26T04:53:31.383Z,-0.38
2023-01-26T04:54:02.308Z,-0.38
2023-01-26T04:54:33.258Z,-0.39
2023-01-26T04:55:04.172Z,-0.41
2023-01-26T04:55:35.090Z,-0.42
2023-01-26T04:56:06.039Z,-0.42
2023-01-26T04:56:36.973Z,-0.41
2023-01-26T04:57:07.870Z,-0.42
2023-01-26T04:57:38.815Z,-0.39
2023-01-26T04:58:09.748Z,-0.38
2023-01-26T04:58:40.642Z,-0.38
2023-01-26T04:59:11.554Z,-0.38
2023-01-26T04:59:42.496Z,-0.39
2023-01-26T05:00:13.705Z,-0.39
2023-01-26T05:00:44.197Z,-0.41
2023-01-26T05:01:15.182Z,-0.42
2023-01-26T05:01:46.089Z,-0.42
2023-01-26T05:02:17.040Z,-0.42
2023-01-26T05:02:47.957Z,-0.41
2023-01-26T05:03:18.906Z,-0.41
2023-01-26T05:03:49.883Z,-0.41
2023-01-26T05:04:20.850Z,-0.41
2023-01-26T05:04:51.789Z,-0.41
2023-01-26T05:05:22.751Z,-0.39
2023-01-26T05:05:53.664Z,-0.39
2023-01-26T05:06:24.596Z,-0.38
2023-01-26T05:06:55.551Z,-0.37
2023-01-26T05:07:26.476Z,-0.38
2023-01-26T05:07:57.412Z,-0.35
2023-01-26T05:08:28.355Z,-0.37
2023-01-26T05:08:59.268Z,-0.34
2023-01-26T05:09:30.216Z,-0.34
2023-01-26T05:10:01.141Z,-0.34
2023-01-26T05:11:02.990Z,-0.35
2023-01-26T05:11:33.908Z,-0.34
2023-01-26T05:12:04.880Z,-0.32
2023-01-26T05:12:35.838Z,-0.32
2023-01-26T05:13:06.722Z,-0.31
2023-01-26T05:13:37.674Z,-0.31
2023-01-26T05:14:08.611Z,-0.31
2023-01-26T05:14:39.521Z,-0.31
2023-01-26T05:15:10.471Z,-0.31
2023-01-26T05:15:41.388Z,-0.27
2023-01-26T05:16:12.344Z,-0.27
2023-01-26T05:16:43.283Z,-0.26
2023-01-26T05:17:14.166Z,-0.26
2023-01-26T05:17:45.066Z,-0.24
2023-01-26T05:18:16.010Z,-0.23
2023-01-26T05:18:46.937Z,-0.20
2023-01-26T05:19:17.861Z,-0.20
2023-01-26T05:19:48.771Z,-0.20
2023-01-26T05:20:19.697Z,-0.19
2023-01-26T05:20:50.641Z,-0.14
2023-01-26T05:21:21.558Z,-0.14
2023-01-26T05:21:52.473Z,-0.14
2023-01-26T05:22:23.396Z,-0.14
2023-01-26T05:22:54.306Z,-0.13
2023-01-26T05:23:25.298Z,-0.13
2023-01-26T05:23:56.194Z,-0.14
2023-01-26T05:24:27.110Z,-0.13
2023-01-26T05:24:58.047Z,-0.14
2023-01-26T05:25:28.986Z,-0.13
2023-01-26T05:25:59.911Z,-0.12
2023-01-26T05:26:30.840Z,-0.12
2023-01-26T05:27:01.732Z,-0.14
2023-01-26T05:27:32.655Z,-0.14
2023-01-26T05:28:03.599Z,-0.14
2023-01-26T05:28:34.508Z,-0.16
2023-01-26T05:29:05.459Z,-0.14
2023-01-26T05:29:36.385Z,-0.14
2023-01-26T05:30:07.278Z,-0.14
2023-01-26T05:30:38.229Z,-0.14
2023-01-26T05:31:09.250Z,-0.14
2023-01-26T05:31:39.738Z,-0.16
2023-01-26T05:32:10.165Z,-0.14
2023-01-26T05:33:12.125Z,-0.13
2023-01-26T05:33:43.129Z,-0.13
2023-01-26T05:34:14.073Z,-0.13
2023-01-26T05:34:45.029Z,-0.13
2023-01-26T05:35:15.972Z,-0.14
2023-01-26T05:35:46.924Z,-0.13
2023-01-26T05:36:17.887Z,-0.14
2023-01-26T05:36:49.626Z,-0.16
2023-01-26T05:37:19.595Z,-0.14
2023-01-26T05:37:50.501Z,-0.19
2023-01-26T05:38:21.387Z,-0.19
2023-01-26T05:38:52.274Z,-0.16
2023-01-26T05:39:23.197Z,-0.19
2023-01-26T05:39:54.123Z,-0.16
2023-01-26T05:40:25.069Z,-0.14
2023-01-26T05:40:56.012Z,-0.17
2023-01-26T05:41:26.961Z,-0.16
2023-01-26T05:41:57.867Z,-0.17
2023-01-26T05:42:28.802Z,-0.19
2023-01-26T05:42:59.761Z,-0.16
2023-01-26T05:43:30.765Z,-0.19
2023-01-26T05:44:32.597Z,-0.19
2023-01-26T05:45:03.532Z,-0.19
2023-01-26T05:45:34.475Z,-0.20
2023-01-26T05:46:05.389Z,-0.20
2023-01-26T05:46:36.330Z,-0.21
2023-01-26T05:47:07.265Z,-0.23
2023-01-26T05:47:38.192Z,-0.23
2023-01-26T05:48:09.125Z,-0.24
2023-01-26T05:48:40.055Z,-0.26
2023-01-26T05:49:10.967Z,-0.26
2023-01-26T05:49:41.933Z,-0.26
2023-01-26T05:50:13.078Z,-0.24
2023-01-26T05:50:43.675Z,-0.23
2023-01-26T05:51:14.573Z,-0.23
2023-01-26T05:51:45.545Z,-0.23
2023-01-26T05:52:16.483Z,-0.23
2023-01-26T05:52:47.382Z,-0.24
2023-01-26T05:53:18.397Z,-0.24
2023-01-26T05:53:49.303Z,-0.23
2023-01-26T05:54:20.213Z,-0.23
2023-01-26T05:54:51.211Z,-0.23
2023-01-26T05:55:22.131Z,-0.20
2023-01-26T05:55:53.048Z,-0.20
2023-01-26T05:56:23.976Z,-0.20
2023-01-26T05:56:54.909Z,-0.21
2023-01-26T05:57:25.824Z,-0.20
2023-01-26T05:57:56.755Z,-0.17
2023-01-26T05:58:27.693Z,-0.20
2023-01-26T05:58:58.638Z,-0.20
2023-01-26T05:59:29.548Z,-0.19
2023-01-26T06:00:00.475Z,-0.19
2023-01-26T06:00:31.381Z,-0.19
2023-01-26T06:01:02.310Z,-0.19
2023-01-26T06:01:33.219Z,-0.19
2023-01-26T06:02:04.226Z,-0.19
2023-01-26T06:02:35.196Z,-0.19
2023-01-26T06:03:06.130Z,-0.21
2023-01-26T06:03:37.055Z,-0.21
2023-01-26T06:04:08.027Z,-0.21
2023-01-26T06:04:38.956Z,-0.20
2023-01-26T06:05:09.859Z,-0.21
2023-01-26T06:05:40.779Z,-0.21
2023-01-26T06:06:11.736Z,-0.21
2023-01-26T06:06:42.624Z,-0.20
2023-01-26T06:07:13.667Z,-0.21
2023-01-26T06:07:44.093Z,-0.20
2023-01-26T06:08:15.005Z,-0.21
2023-01-26T06:08:45.944Z,-0.21
2023-01-26T06:09:16.912Z,-0.23
2023-01-26T06:09:47.814Z,-0.20
2023-01-26T06:10:18.802Z,-0.17
2023-01-26T06:10:49.723Z,-0.17
2023-01-26T06:11:20.675Z,-0.17
2023-01-26T06:11:51.584Z,-0.17
2023-01-26T06:12:22.481Z,-0.17
2023-01-26T06:12:53.464Z,-0.17
2023-01-26T06:13:24.358Z,-0.16
2023-01-26T06:13:55.308Z,-0.17
2023-01-26T06:14:26.262Z,-0.17
2023-01-26T06:14:57.184Z,-0.16
2023-01-26T06:15:28.100Z,-0.17
2023-01-26T06:15:59.023Z,-0.16
2023-01-26T06:16:30.002Z,-0.19
2023-01-26T06:17:00.499Z,-0.17
2023-01-26T06:17:31.412Z,-0.19
2023-01-26T06:18:02.325Z,-0.20
2023-01-26T06:18:33.220Z,-0.21
2023-01-26T06:19:04.159Z,-0.24
2023-01-26T06:19:35.117Z,-0.24
2023-01-26T06:20:06.059Z,-0.24
2023-01-26T06:20:37.029Z,-0.26
2023-01-26T06:21:07.929Z,-0.30
2023-01-26T06:21:38.866Z,-0.30
2023-01-26T06:22:09.765Z,-0.30
2023-01-26T06:22:40.702Z,-0.31
2023-01-26T06:23:11.606Z,-0.27
2023-01-26T06:23:42.547Z,-0.27
2023-01-26T06:24:13.466Z,-0.27
2023-01-26T06:24:44.456Z,-0.27
2023-01-26T06:25:15.375Z,-0.30
2023-01-26T06:25:46.291Z,-0.31
2023-01-26T06:26:17.205Z,-0.34
2023-01-26T06:26:48.121Z,-0.34
2023-01-26T06:27:19.049Z,-0.34
2023-01-26T06:27:49.968Z,-0.32
2023-01-26T06:28:20.896Z,-0.35
2023-01-26T06:28:51.812Z,-0.34
2023-01-26T06:29:22.754Z,-0.34
2023-01-26T06:29:53.689Z,-0.35
2023-01-26T06:30:24.611Z,-0.34
2023-01-26T06:30:55.605Z,-0.32
2023-01-26T06:31:26.679Z,-0.32
2023-01-26T06:31:57.120Z,-0.32
2023-01-26T06:32:28.025Z,-0.31
2023-01-26T06:33:00.289Z,-0.31
2023-01-26T06:33:29.817Z,-0.31
2023-01-26T06:34:00.742Z,-0.31
2023-01-26T06:34:31.684Z,-0.32
2023-01-26T06:35:02.631Z,-0.31
2023-01-26T06:35:33.510Z,-0.27
2023-01-26T06:36:04.403Z,-0.30
2023-01-26T06:36:35.328Z,-0.26
2023-01-26T06:37:06.200Z,-0.26
2023-01-26T06:37:37.104Z,-0.24
2023-01-26T06:38:07.965Z,-0.23
2023-01-26T06:38:38.880Z,-0.23
2023-01-26T06:39:09.834Z,-0.23
2023-01-26T06:39:40.761Z,-0.23
2023-01-26T06:40:42.589Z,-0.26
2023-01-26T06:41:13.502Z,-0.27
2023-01-26T06:41:44.444Z,-0.30
2023-01-26T06:42:15.328Z,-0.26
2023-01-26T06:42:46.192Z,-0.27
2023-01-26T06:43:17.070Z,-0.27
2023-01-26T06:43:47.963Z,-0.30
2023-01-26T06:44:18.817Z,-0.30
2023-01-26T06:44:49.753Z,-0.27
2023-01-26T06:45:20.646Z,-0.27
2023-01-26T06:45:51.527Z,-0.27
2023-01-26T06:46:22.427Z,-0.30
2023-01-26T06:46:53.386Z,-0.30
2023-01-26T06:47:24.299Z,-0.27